createdAt,value
2019-04-26T00:01:35.349Z,10.07
2019-04-26T00:06:40.250Z,9.89
2019-04-26T00:09:48.666Z,10.01
2019-04-26T00:12:36.667Z,9.95
2019-04-26T00:15:45.475Z,9.88
2019-04-26T00:18:14.774Z,9.91
2019-04-26T00:20:43.479Z,9.86
2019-04-26T00:26:20.602Z,9.84
2019-04-26T00:28:49.876Z,9.73
2019-04-26T00:31:19.242Z,9.65
2019-04-26T00:33:49.843Z,9.68
2019-04-26T00:36:18.748Z,9.62
2019-04-26T00:38:47.385Z,9.55
2019-04-26T00:41:55.851Z,9.55
2019-04-26T00:44:24.498Z,9.56
2019-04-26T00:47:33.259Z,9.56
2019-04-26T00:50:21.562Z,9.59
2019-04-26T00:55:46.087Z,9.45
2019-04-26T00:58:54.546Z,9.39
2019-04-26T01:09:35.046Z,9.22
2019-04-26T01:12:04.129Z,9.16
2019-04-26T01:14:33.549Z,9.17
2019-04-26T01:17:02.092Z,9.09
2019-04-26T01:20:10.557Z,9.13
2019-04-26T01:23:19.025Z,9.21
2019-04-26T01:26:27.324Z,9.18
2019-04-26T01:29:17.170Z,9.08
2019-04-26T01:32:07.775Z,8.96
2019-04-26T01:34:57.111Z,8.95
2019-04-26T01:43:29.529Z,8.98
2019-04-26T01:46:38.003Z,8.92
2019-04-26T01:49:26.865Z,8.87
2019-04-26T01:52:35.873Z,8.81
2019-04-26T01:55:25.255Z,8.84
2019-04-26T01:58:33.711Z,8.75
2019-04-26T02:06:39.627Z,8.82
2019-04-26T02:11:47.864Z,8.76
2019-04-26T02:14:16.768Z,8.71
2019-04-26T02:16:45.412Z,8.77
2019-04-26T02:19:14.098Z,8.75
2019-04-26T02:22:01.960Z,8.71
2019-04-26T02:25:10.413Z,8.63
2019-04-26T02:27:39.090Z,8.53
2019-04-26T02:32:48.072Z,8.35
2019-04-26T02:35:16.753Z,8.39
2019-04-26T02:38:04.690Z,8.31
2019-04-26T02:40:34.747Z,8.35
2019-04-26T02:43:03.824Z,8.28
2019-04-26T02:46:12.262Z,8.24
2019-04-26T02:49:21.128Z,8.23
2019-04-26T02:52:33.356Z,8.22
2019-04-26T02:55:42.418Z,8.15
2019-04-26T02:58:50.259Z,8.17
2019-04-26T03:05:06.919Z,8.06
2019-04-26T03:08:15.634Z,8.15
2019-04-26T03:11:05.305Z,8.01
2019-04-26T03:14:13.766Z,8.05
2019-04-26T03:17:22.184Z,8.07
2019-04-26T03:20:29.380Z,7.99
2019-04-26T03:23:56.353Z,7.98
2019-04-26T03:26:46.902Z,7.97
2019-04-26T03:30:05.035Z,8.04
2019-04-26T03:33:04.425Z,8.09
2019-04-26T03:39:29.956Z,8.08
2019-04-26T03:42:38.425Z,8.08
2019-04-26T03:45:46.087Z,8.20
2019-04-26T03:48:54.859Z,8.13
2019-04-26T03:52:03.612Z,8.21
2019-04-26T03:55:12.335Z,8.24
2019-04-26T03:58:21.140Z,8.13
2019-04-26T04:01:29.590Z,8.07
2019-04-26T04:04:39.599Z,8.06
2019-04-26T04:07:51.453Z,8.03
2019-04-26T04:10:41.489Z,8.03
2019-04-26T04:13:51.435Z,8.08
2019-04-26T04:16:59.610Z,8.08
2019-04-26T04:20:08.423Z,8.13
2019-04-26T04:23:16.940Z,8.04
2019-04-26T04:26:25.815Z,8.08
2019-04-26T04:29:42.157Z,8.07
2019-04-26T04:32:44.313Z,8.10
2019-04-26T04:39:12.554Z,7.96
2019-04-26T04:42:34.124Z,7.94
2019-04-26T04:45:45.713Z,7.93
2019-04-26T04:48:53.983Z,8.02
2019-04-26T04:52:01.179Z,8.05
2019-04-26T04:55:08.394Z,8.10
2019-04-26T04:58:17.282Z,8.14
2019-04-26T05:01:44.251Z,8.08
2019-04-26T05:04:53.239Z,8.19
2019-04-26T05:08:06.825Z,8.25
2019-04-26T05:11:12.018Z,8.30
2019-04-26T05:14:20.726Z,8.28
2019-04-26T05:17:29.221Z,8.46
2019-04-26T05:20:37.707Z,8.48
2019-04-26T05:23:46.209Z,8.48
2019-04-26T05:26:55.681Z,8.68
2019-04-26T05:30:05.861Z,8.79
2019-04-26T05:33:14.295Z,8.84
2019-04-26T05:36:22.808Z,8.65
2019-04-26T05:39:31.265Z,8.68
2019-04-26T05:42:39.744Z,8.87
2019-04-26T05:46:06.007Z,8.96
2019-04-26T05:49:14.525Z,8.98
2019-04-26T05:52:23.256Z,8.94
2019-04-26T05:55:31.783Z,9.01
2019-04-26T05:58:40.207Z,8.89
2019-04-26T06:01:48.662Z,9.11
2019-04-26T06:04:57.228Z,9.26
2019-04-26T06:08:05.718Z,9.59
2019-04-26T06:11:14.149Z,10.02
2019-04-26T06:14:40.530Z,10.00
2019-04-26T06:17:48.949Z,9.96
2019-04-26T06:20:57.406Z,9.87
2019-04-26T06:24:04.587Z,9.73
2019-04-26T06:27:14.417Z,9.79
2019-04-26T06:30:23.176Z,9.87
2019-04-26T06:33:31.693Z,10.01
2019-04-26T06:36:40.146Z,9.92
2019-04-26T06:39:47.304Z,10.21
2019-04-26T06:42:56.284Z,10.45
2019-04-26T06:46:05.907Z,10.47
2019-04-26T06:49:14.407Z,10.30
2019-04-26T06:52:22.920Z,10.02
2019-04-26T06:55:49.144Z,9.85
2019-04-26T06:58:57.854Z,9.88
2019-04-26T07:02:06.134Z,9.75
2019-04-26T07:05:15.315Z,9.85
2019-04-26T07:08:24.783Z,9.82
2019-04-26T07:11:33.208Z,9.80
2019-04-26T07:14:40.407Z,9.70
2019-04-26T07:17:48.828Z,9.70
2019-04-26T07:20:57.282Z,9.75
2019-04-26T07:24:05.754Z,9.83
2019-04-26T07:27:13.175Z,9.70
2019-04-26T07:30:21.919Z,9.60
2019-04-26T07:33:29.141Z,9.60
2019-04-26T07:36:37.552Z,9.57
2019-04-26T07:39:46.006Z,9.66
2019-04-26T07:42:54.473Z,9.56
2019-04-26T07:46:03.004Z,9.52
2019-04-26T07:49:10.548Z,9.44
2019-04-26T07:52:17.686Z,9.45
2019-04-26T07:55:24.839Z,9.45
2019-04-26T07:58:33.304Z,9.30
2019-04-26T08:01:42.082Z,9.41
2019-04-26T08:04:50.552Z,9.25
2019-04-26T08:07:58.982Z,9.27
2019-04-26T08:11:08.610Z,9.22
2019-04-26T08:14:17.651Z,9.12
2019-04-26T08:17:43.913Z,9.06
2019-04-26T08:20:52.383Z,9.02
2019-04-26T08:24:00.833Z,9.07
2019-04-26T08:27:18.792Z,8.96
2019-04-26T08:30:21.313Z,8.94
2019-04-26T08:33:29.668Z,8.90
2019-04-26T08:36:38.064Z,8.79
2019-04-26T08:39:50.439Z,8.75
2019-04-26T08:42:57.380Z,8.78
2019-04-26T08:46:10.444Z,8.93
2019-04-26T08:49:17.597Z,8.87
2019-04-26T08:55:22.269Z,8.70
2019-04-26T08:58:30.696Z,8.78
2019-04-26T09:01:42.003Z,8.75
2019-04-26T09:10:32.798Z,8.71
2019-04-26T09:13:41.247Z,8.67
2019-04-26T09:16:50.659Z,8.69
2019-04-26T09:19:20.055Z,8.61
2019-04-26T09:24:59.552Z,8.56
2019-04-26T09:27:46.383Z,8.57
2019-04-26T09:33:09.670Z,8.72
2019-04-26T09:35:38.308Z,8.67
2019-04-26T09:38:06.913Z,8.77
2019-04-26T09:40:35.588Z,8.80
2019-04-26T09:43:23.382Z,8.76
2019-04-26T09:46:11.020Z,8.88
2019-04-26T09:48:58.823Z,8.84
2019-04-26T09:54:16.630Z,8.92
2019-04-26T09:56:45.265Z,9.02
2019-04-26T09:59:13.936Z,9.06
2019-04-26T10:01:42.614Z,8.90
2019-04-26T10:04:11.252Z,8.98
2019-04-26T10:06:39.902Z,8.94
2019-04-26T10:12:22.344Z,8.83
2019-04-26T10:15:10.127Z,8.80
2019-04-26T10:17:38.873Z,8.99
2019-04-26T10:20:47.315Z,8.88
2019-04-26T10:23:16.046Z,9.04
2019-04-26T10:25:47.416Z,9.04
2019-04-26T10:28:15.986Z,9.08
2019-04-26T10:30:45.816Z,8.96
2019-04-26T10:33:14.474Z,8.97
2019-04-26T10:35:43.099Z,9.00
2019-04-26T10:38:11.735Z,9.05
2019-04-26T10:40:40.372Z,9.25
2019-04-26T10:45:45.880Z,9.08
2019-04-26T10:48:15.525Z,8.80
2019-04-26T10:50:45.302Z,8.83
2019-04-26T10:53:33.071Z,8.72
2019-04-26T10:56:24.169Z,8.79
2019-04-26T11:01:40.542Z,8.62
2019-04-26T11:04:09.176Z,8.56
2019-04-26T11:06:37.840Z,8.48
2019-04-26T11:09:46.261Z,8.49
2019-04-26T11:12:35.566Z,8.45
2019-04-26T11:18:12.377Z,8.72
2019-04-26T11:20:41.411Z,8.78
2019-04-26T11:23:11.967Z,8.85
2019-04-26T11:25:41.752Z,8.97
2019-04-26T11:28:10.436Z,9.01
2019-04-26T11:31:18.911Z,8.87
2019-04-26T11:33:49.594Z,8.93
2019-04-26T11:36:18.008Z,8.96
2019-04-26T11:38:46.615Z,8.76
2019-04-26T11:41:15.297Z,8.71
2019-04-26T11:43:43.924Z,8.72
2019-04-26T11:46:12.605Z,8.62
2019-04-26T11:48:41.282Z,8.60
2019-04-26T11:51:09.856Z,8.53
2019-04-26T11:53:40.504Z,8.55
2019-04-26T11:56:08.850Z,8.76
2019-04-26T11:58:37.442Z,8.83
2019-04-26T12:04:14.452Z,8.93
2019-04-26T12:09:51.226Z,8.85
2019-04-26T12:12:19.781Z,8.97
2019-04-26T12:14:48.388Z,8.79
2019-04-26T12:17:17.030Z,8.88
2019-04-26T12:19:48.298Z,8.75
2019-04-26T12:22:16.008Z,8.93
2019-04-26T12:24:44.686Z,9.07
2019-04-26T12:27:13.428Z,9.04
2019-04-26T12:29:44.181Z,9.29
2019-04-26T12:32:12.467Z,9.45
2019-04-26T12:34:41.110Z,9.61
2019-04-26T12:37:12.511Z,9.48
2019-04-26T12:39:40.068Z,9.56
2019-04-26T12:42:12.220Z,9.71
2019-04-26T12:44:58.364Z,9.61
2019-04-26T12:47:46.087Z,9.68
2019-04-26T12:53:09.736Z,9.36
2019-04-26T12:55:38.360Z,9.36
2019-04-26T12:58:07.028Z,9.50
2019-04-26T13:00:37.574Z,9.39
2019-04-26T13:05:41.324Z,9.27
2019-04-26T13:08:13.200Z,9.16
2019-04-26T13:10:59.642Z,9.30
2019-04-26T13:18:41.224Z,9.02
2019-04-26T13:21:09.886Z,9.05
2019-04-26T13:23:38.564Z,9.00
2019-04-26T13:26:07.207Z,8.89
2019-04-26T13:28:35.894Z,8.90
2019-04-26T13:31:04.527Z,9.01
2019-04-26T13:33:33.195Z,8.98
2019-04-26T13:36:03.013Z,8.98
2019-04-26T13:38:32.250Z,9.06
2019-04-26T13:41:21.492Z,9.08
2019-04-26T13:43:50.067Z,8.98
2019-04-26T13:49:18.067Z,8.97
2019-04-26T13:51:47.898Z,8.97
2019-04-26T13:54:20.939Z,9.10
2019-04-26T13:56:46.904Z,9.16
2019-04-26T13:59:15.543Z,9.27
2019-04-26T14:01:44.259Z,9.47
2019-04-26T14:04:12.954Z,9.56
2019-04-26T14:06:41.577Z,9.79
2019-04-26T14:11:45.704Z,9.82
2019-04-26T14:14:14.375Z,9.75
2019-04-26T14:19:22.730Z,9.51
2019-04-26T14:24:46.255Z,9.73
2019-04-26T14:30:43.906Z,9.71
2019-04-26T14:33:12.561Z,10.22
2019-04-26T14:35:41.116Z,10.45
2019-04-26T14:38:09.717Z,10.31
2019-04-26T14:41:22.503Z,10.39
2019-04-26T14:43:52.583Z,10.20
2019-04-26T14:46:19.024Z,10.29
2019-04-26T14:49:00.574Z,10.54
2019-04-26T14:51:18.653Z,10.67
2019-04-26T14:54:11.535Z,10.83
2019-04-26T14:56:51.492Z,10.84
2019-04-26T14:59:10.321Z,11.01
2019-04-26T15:04:47.324Z,11.00
2019-04-26T15:07:15.971Z,10.99
2019-04-26T15:09:44.580Z,10.64
2019-04-26T15:12:15.772Z,10.69
2019-04-26T15:14:43.614Z,10.44
2019-04-26T15:17:12.563Z,10.06
2019-04-26T15:19:45.955Z,10.07
2019-04-26T15:22:13.163Z,10.12
2019-04-26T15:24:42.203Z,10.05
2019-04-26T15:27:12.119Z,10.17
2019-04-26T15:29:42.321Z,10.20
2019-04-26T15:32:12.765Z,10.22
2019-04-26T15:34:41.584Z,10.40
2019-04-26T15:37:10.285Z,10.41
2019-04-26T15:39:58.423Z,10.30
2019-04-26T15:42:58.718Z,10.09
2019-04-26T15:48:12.141Z,10.16
2019-04-26T15:50:59.900Z,9.98
2019-04-26T15:53:28.495Z,9.86
2019-04-26T15:55:57.142Z,9.79
2019-04-26T15:58:25.950Z,9.86
2019-04-26T16:03:44.573Z,10.15
2019-04-26T16:06:14.267Z,10.49
2019-04-26T16:08:43.971Z,11.00
2019-04-26T16:11:13.324Z,11.09
2019-04-26T16:13:45.151Z,10.98
2019-04-26T16:16:12.669Z,10.69
2019-04-26T16:18:43.157Z,10.51
2019-04-26T16:21:32.565Z,10.41
2019-04-26T16:24:02.754Z,10.34
2019-04-26T16:26:32.940Z,10.26
2019-04-26T16:32:10.456Z,10.32
2019-04-26T16:34:58.220Z,10.39
2019-04-26T16:37:26.968Z,10.31
2019-04-26T16:39:55.574Z,10.10
2019-04-26T16:42:24.220Z,9.92
2019-04-26T16:45:12.420Z,9.81
2019-04-26T16:47:45.095Z,9.83
2019-04-26T16:50:53.104Z,9.92
2019-04-26T16:53:42.513Z,9.98
2019-04-26T16:55:53.271Z,9.91
2019-04-26T16:58:24.650Z,9.70
2019-04-26T17:00:57.667Z,9.69
2019-04-26T17:03:25.937Z,9.70
2019-04-26T17:06:04.646Z,9.64
2019-04-26T17:08:23.764Z,9.63
2019-04-26T17:10:56.580Z,9.57
2019-04-26T17:13:23.912Z,9.59
2019-04-26T17:15:58.022Z,9.54
2019-04-26T17:18:26.894Z,9.61
2019-04-26T17:20:53.890Z,9.60
2019-04-26T17:23:41.646Z,9.53
2019-04-26T17:26:33.578Z,9.56
2019-04-26T17:28:59.914Z,9.48
2019-04-26T17:31:28.666Z,9.21
2019-04-26T17:33:57.337Z,9.21
2019-04-26T17:36:25.979Z,9.20
2019-04-26T17:38:54.620Z,9.21
2019-04-26T17:41:23.298Z,9.18
2019-04-26T17:44:05.787Z,9.20
2019-04-26T17:46:22.395Z,9.12
2019-04-26T17:48:51.361Z,9.02
2019-04-26T17:51:23.234Z,9.02
2019-04-26T17:54:18.626Z,9.02
2019-04-26T17:56:26.208Z,9.01
2019-04-26T17:58:54.663Z,9.04
2019-04-26T18:01:42.125Z,8.94
2019-04-26T18:03:55.714Z,8.92
2019-04-26T18:06:29.951Z,8.87
2019-04-26T18:08:55.196Z,8.84
2019-04-26T18:11:25.171Z,8.84
2019-04-26T18:13:55.156Z,8.85
2019-04-26T18:16:29.178Z,8.93
2019-04-26T18:19:13.401Z,8.88
2019-04-26T18:22:01.190Z,8.95
2019-04-26T18:24:32.277Z,8.98
2019-04-26T18:27:00.591Z,9.05
2019-04-26T18:29:30.628Z,9.03
2019-04-26T18:32:03.732Z,9.02
2019-04-26T18:34:30.585Z,9.07
2019-04-26T18:37:01.984Z,8.95
2019-04-26T18:39:30.371Z,9.00
2019-04-26T18:42:04.312Z,8.98
2019-04-26T18:44:36.950Z,9.00
2019-04-26T18:49:52.043Z,8.92
2019-04-26T18:52:19.554Z,8.81
2019-04-26T18:55:08.821Z,8.81
2019-04-26T18:57:37.566Z,8.85
2019-04-26T19:00:46.034Z,8.78
2019-04-26T19:03:16.015Z,8.69
2019-04-26T19:05:45.297Z,8.74
2019-04-26T19:08:14.921Z,8.79
2019-04-26T19:10:44.399Z,8.76
2019-04-26T19:13:36.600Z,8.74
2019-04-26T19:16:21.681Z,8.74
2019-04-26T19:19:09.405Z,8.70
2019-04-26T19:21:57.218Z,8.68
2019-04-26T19:24:25.900Z,8.62
2019-04-26T19:26:54.529Z,8.57
2019-04-26T19:29:32.691Z,8.56
2019-04-26T19:31:56.602Z,8.51
2019-04-26T19:34:26.004Z,8.49
2019-04-26T19:36:56.407Z,8.42
2019-04-26T19:39:32.397Z,8.40
2019-04-26T19:41:57.672Z,8.32
2019-04-26T19:44:25.543Z,8.26
2019-04-26T19:52:45.153Z,8.13
2019-04-26T19:58:09.707Z,8.11
2019-04-26T20:00:43.417Z,8.10
2019-04-26T20:03:15.162Z,8.09
2019-04-26T20:05:40.587Z,8.08
2019-04-26T20:08:10.110Z,8.10
2019-04-26T20:10:43.231Z,8.11
2019-04-26T20:13:15.131Z,8.07
2019-04-26T20:15:42.334Z,8.06
2019-04-26T20:18:12.226Z,8.07
2019-04-26T20:20:42.281Z,8.08
2019-04-26T20:23:12.389Z,8.07
2019-04-26T20:25:41.307Z,8.04
2019-04-26T20:28:09.964Z,8.04
2019-04-26T20:31:05.856Z,7.98
2019-04-26T20:33:31.139Z,8.02
2019-04-26T20:36:03.417Z,7.99
2019-04-26T20:38:33.265Z,8.03
2019-04-26T20:41:01.481Z,7.97
2019-04-26T20:43:32.109Z,8.03
2019-04-26T20:46:12.388Z,8.04
2019-04-26T20:48:33.154Z,8.02
2019-04-26T20:51:02.393Z,8.03
2019-04-26T20:53:39.904Z,8.10
2019-04-26T20:56:03.757Z,8.18
2019-04-26T20:58:33.054Z,8.16
2019-04-26T21:03:51.765Z,8.16
2019-04-26T21:06:22.246Z,8.19
2019-04-26T21:08:52.251Z,8.18
2019-04-26T21:11:22.254Z,8.19
2019-04-26T21:13:51.935Z,8.18
2019-04-26T21:16:22.130Z,8.19
2019-04-26T21:18:52.432Z,8.22
2019-04-26T21:21:22.240Z,8.12
2019-04-26T21:26:52.758Z,8.25
2019-04-26T21:32:30.395Z,8.19
2019-04-26T21:37:53.967Z,8.14
2019-04-26T21:48:53.412Z,8.20
2019-04-26T21:51:23.139Z,8.24
2019-04-26T21:53:52.991Z,8.21
2019-04-26T21:56:23.565Z,8.23
2019-04-26T21:58:53.262Z,8.27
2019-04-26T22:04:13.270Z,8.35
2019-04-26T22:06:42.749Z,8.29
2019-04-26T22:09:52.799Z,8.34
2019-04-26T22:13:01.622Z,8.31
2019-04-26T22:15:50.859Z,8.40
2019-04-26T22:18:38.918Z,8.34
2019-04-26T22:24:03.936Z,8.26
2019-04-26T22:26:33.940Z,8.17
2019-04-26T22:29:03.807Z,8.22
2019-04-26T22:31:33.791Z,8.20
2019-04-26T22:34:07.496Z,8.21
2019-04-26T22:36:35.752Z,8.13
2019-04-26T22:39:44.451Z,8.13
2019-04-26T22:42:14.528Z,8.11
2019-04-26T22:47:42.464Z,8.17
2019-04-26T22:50:27.382Z,8.12
2019-04-26T22:52:56.083Z,8.15
2019-04-26T22:55:27.532Z,8.15
2019-04-26T22:57:55.183Z,8.15
2019-04-26T23:05:53.731Z,8.19
2019-04-26T23:11:13.404Z,8.16
2019-04-26T23:14:03.399Z,8.05
2019-04-26T23:17:04.107Z,8.03
2019-04-26T23:19:41.377Z,8.03
2019-04-26T23:24:54.545Z,8.11
2019-04-26T23:27:20.713Z,8.10
2019-04-26T23:29:56.820Z,8.10
2019-04-26T23:32:20.672Z,8.09
2019-04-26T23:37:38.572Z,8.04
2019-04-26T23:40:07.240Z,8.08
2019-04-26T23:42:35.888Z,8.08
2019-04-26T23:45:48.272Z,8.01
2019-04-26T23:48:14.742Z,8.02
2019-04-26T23:50:43.390Z,7.92
2019-04-26T23:53:13.780Z,7.87
2019-04-26T23:55:45.130Z,7.80
2019-04-26T23:58:13.890Z,7.82
